Vancouver, WA

11:24 PM PST on December 10, 2017 (GMT -0800)
GoldWing Flats | | Change Station
Active Advisory: Air Stagnation Advisory

Elev 419 ft 45.63 °N, 122.52 °W | Updated 19 seconds ago

Clear
Clear
27.1 °F
Feels Like 27 °F
N
1.7
Wind Variable Wind from ESE

Today
High -- | Low -- °F
--% Chance of Precip.
Yesterday
High -- | Low -- °F
Precip. -- in
Pressure 30.38 in
Visibility 10.0 miles
Clouds Clear
Windchill 27 °F
Dew Point 25 °F
Humidity 92%
Rainfall 0.00 in
Snow Depth Not available.
7:39 AM 4:26 PM
Last Quarter, 40% visible
METAR KPDX 110653Z 11013KT 10SM CLR 02/M03 A3038 RMK AO2 SLP286 T00221033 $
Pressure 30.38 in
Visibility 10.0 miles
Clouds Clear
Windchill 27 °F
Dew Point 25 °F
Humidity 92%
Rainfall 0.00 in
Snow Depth Not available.
7:39 AM 4:26 PM
Last Quarter, 40% visible
METAR KPDX 110653Z 11013KT 10SM CLR 02/M03 A3038 RMK AO2 SLP286 T00221033 $

Get Your Daily Forecast Email!

Thanks for signing up!

Be on the lookout for a verification email in your inbox.

You'll start receiving severe weather alerts in your inbox..

×

10-Day Weather Forecast

Almanac

Astronomy

Dec. 10, 2017 Rise Set
Actual Time
Civil Twilight
Nautical Twilight
Astronomical Twilight
Moon
Length of Visible Light
Length of Day
Tomorrow will be .
, % of the Moon is Illuminated

Today's Extremes

State Highs State Lows

Community

WunderPhotos

Category 6

Welcome to Category 6. This is the collective home for Weather Underground's featured writeups by Dr. Jeff Masters (right), Bob Henson (left), Chris Burt, and other regular contributors.

Nearby

Air Quality

  Air Quality AQ Index Pollutant
Not available.

Snow Depth

Station Depth Elevation

Earthquake Activity

City Distance Mag. Time & Date
Minimum magnitude displayed is 2.5.

Coastal Water Temperatures

Place Temperature

Stations

Nearby Weather Stations

Station Location Temp. Windchill Dew Point Humidity Wind Precip. Elev Updated Type
                   

Watches & Warnings

Air Stagnation Advisory
Issued: 1:34 PM PST Dec. 9, 2017 – National Weather Service

... Air stagnation advisory remains in effect until 2 PM PST
Thursday...

* air quality... air quality may deteriorate due to an extended
period of stagnant air conditions.

* Timing... through Thursday afternoon.

* Locations... most of Clark County excluding areas near the
Columbia River gorge.

* Impacts... limited ventilation may result in deteriorating air
quality.

Precautionary/preparedness actions...

An air stagnation advisory indicates that due to limited movement
of an air mass across the advisory area, pollution will increase
to dangerous levels. Persons with respiratory illness should
follow their physicians advice for dealing with high levels of
air pollution.